sensor_id;sensor_type;location;lat;lon;timestamp;P1;durP1;ratioP1;P2;durP2;ratioP2
8312;SDS011;4194;43.408;24.626;2023-09-19T00:00:36;11.20;;;6.10;;
8312;SDS011;4194;43.408;24.626;2023-09-19T00:03:02;7.23;;;6.13;;
8312;SDS011;4194;43.408;24.626;2023-09-19T00:05:30;9.13;;;6.90;;
8312;SDS011;4194;43.408;24.626;2023-09-19T00:08:00;11.40;;;7.50;;
8312;SDS011;4194;43.408;24.626;2023-09-19T00:10:29;10.17;;;7.03;;
8312;SDS011;4194;43.408;24.626;2023-09-19T00:13:00;7.70;;;6.87;;
8312;SDS011;4194;43.408;24.626;2023-09-19T00:15:31;8.33;;;6.47;;
8312;SDS011;4194;43.408;24.626;2023-09-19T00:18:02;11.30;;;6.77;;
8312;SDS011;4194;43.408;24.626;2023-09-19T00:20:29;13.10;;;7.30;;
8312;SDS011;4194;43.408;24.626;2023-09-19T00:22:55;8.13;;;6.97;;
8312;SDS011;4194;43.408;24.626;2023-09-19T00:25:21;10.00;;;6.53;;
8312;SDS011;4194;43.408;24.626;2023-09-19T00:27:47;9.37;;;7.40;;
8312;SDS011;4194;43.408;24.626;2023-09-19T00:30:14;8.60;;;7.27;;
8312;SDS011;4194;43.408;24.626;2023-09-19T00:32:47;9.73;;;6.97;;
8312;SDS011;4194;43.408;24.626;2023-09-19T00:35:13;7.97;;;6.67;;
8312;SDS011;4194;43.408;24.626;2023-09-19T00:37:40;10.03;;;7.83;;
8312;SDS011;4194;43.408;24.626;2023-09-19T00:40:07;8.30;;;7.07;;
8312;SDS011;4194;43.408;24.626;2023-09-19T00:42:52;13.87;;;7.30;;
8312;SDS011;4194;43.408;24.626;2023-09-19T00:45:25;12.83;;;7.03;;
8312;SDS011;4194;43.408;24.626;2023-09-19T00:47:50;12.27;;;6.90;;
8312;SDS011;4194;43.408;24.626;2023-09-19T00:50:21;10.00;;;7.37;;
8312;SDS011;4194;43.408;24.626;2023-09-19T00:52:50;7.77;;;6.77;;
8312;SDS011;4194;43.408;24.626;2023-09-19T00:55:21;12.40;;;7.37;;
8312;SDS011;4194;43.408;24.626;2023-09-19T00:57:48;7.43;;;6.60;;
8312;SDS011;4194;43.408;24.626;2023-09-19T01:00:15;7.57;;;6.27;;
8312;SDS011;4194;43.408;24.626;2023-09-19T01:02:44;10.20;;;6.63;;
8312;SDS011;4194;43.408;24.626;2023-09-19T01:05:10;7.37;;;6.60;;
8312;SDS011;4194;43.408;24.626;2023-09-19T01:07:36;8.03;;;7.23;;
8312;SDS011;4194;43.408;24.626;2023-09-19T01:10:14;13.20;;;7.80;;
8312;SDS011;4194;43.408;24.626;2023-09-19T01:29:44;7.97;;;6.60;;
8312;SDS011;4194;43.408;24.626;2023-09-19T01:32:11;7.90;;;6.40;;
8312;SDS011;4194;43.408;24.626;2023-09-19T01:34:45;9.17;;;6.90;;
8312;SDS011;4194;43.408;24.626;2023-09-19T01:37:17;10.10;;;6.33;;
8312;SDS011;4194;43.408;24.626;2023-09-19T01:39:48;8.67;;;7.30;;
8312;SDS011;4194;43.408;24.626;2023-09-19T01:42:24;10.97;;;7.30;;
8312;SDS011;4194;43.408;24.626;2023-09-19T01:45:33;9.07;;;7.07;;
8312;SDS011;4194;43.408;24.626;2023-09-19T01:48:43;12.00;;;7.73;;
8312;SDS011;4194;43.408;24.626;2023-09-19T01:51:06;7.90;;;7.10;;
8312;SDS011;4194;43.408;24.626;2023-09-19T01:55:58;11.17;;;7.07;;
8312;SDS011;4194;43.408;24.626;2023-09-19T01:58:29;9.23;;;7.37;;
8312;SDS011;4194;43.408;24.626;2023-09-19T02:00:55;11.97;;;6.23;;
8312;SDS011;4194;43.408;24.626;2023-09-19T02:03:23;9.07;;;7.17;;
8312;SDS011;4194;43.408;24.626;2023-09-19T02:05:50;9.80;;;7.17;;
8312;SDS011;4194;43.408;24.626;2023-09-19T02:08:19;11.87;;;6.63;;
8312;SDS011;4194;43.408;24.626;2023-09-19T02:10:45;9.73;;;7.20;;
8312;SDS011;4194;43.408;24.626;2023-09-19T02:13:16;9.07;;;6.23;;
8312;SDS011;4194;43.408;24.626;2023-09-19T02:15:44;9.63;;;6.23;;
8312;SDS011;4194;43.408;24.626;2023-09-19T02:18:11;8.83;;;6.63;;
8312;SDS011;4194;43.408;24.626;2023-09-19T02:20:38;9.10;;;7.27;;
8312;SDS011;4194;43.408;24.626;2023-09-19T02:23:04;15.87;;;7.33;;
8312;SDS011;4194;43.408;24.626;2023-09-19T02:25:30;6.97;;;6.23;;
8312;SDS011;4194;43.408;24.626;2023-09-19T02:27:57;8.77;;;7.03;;
8312;SDS011;4194;43.408;24.626;2023-09-19T02:30:24;9.87;;;6.77;;
8312;SDS011;4194;43.408;24.626;2023-09-19T02:32:51;7.90;;;6.53;;
8312;SDS011;4194;43.408;24.626;2023-09-19T02:35:17;10.40;;;6.83;;
8312;SDS011;4194;43.408;24.626;2023-09-19T02:37:45;8.13;;;6.80;;
8312;SDS011;4194;43.408;24.626;2023-09-19T02:40:11;9.00;;;6.80;;
8312;SDS011;4194;43.408;24.626;2023-09-19T02:42:54;11.50;;;6.97;;
8312;SDS011;4194;43.408;24.626;2023-09-19T02:45:21;7.33;;;6.57;;
8312;SDS011;4194;43.408;24.626;2023-09-19T02:47:47;11.00;;;7.53;;
8312;SDS011;4194;43.408;24.626;2023-09-19T02:50:14;14.40;;;7.60;;
8312;SDS011;4194;43.408;24.626;2023-09-19T02:52:43;9.60;;;6.93;;
8312;SDS011;4194;43.408;24.626;2023-09-19T02:55:09;11.17;;;7.13;;
8312;SDS011;4194;43.408;24.626;2023-09-19T02:57:37;10.47;;;6.70;;
8312;SDS011;4194;43.408;24.626;2023-09-19T03:00:06;9.80;;;7.10;;
8312;SDS011;4194;43.408;24.626;2023-09-19T03:02:34;12.53;;;7.10;;
8312;SDS011;4194;43.408;24.626;2023-09-19T03:05:00;10.90;;;6.90;;
8312;SDS011;4194;43.408;24.626;2023-09-19T03:07:28;13.07;;;7.10;;
8312;SDS011;4194;43.408;24.626;2023-09-19T03:09:53;15.57;;;7.50;;
8312;SDS011;4194;43.408;24.626;2023-09-19T03:12:20;16.53;;;8.10;;
8312;SDS011;4194;43.408;24.626;2023-09-19T03:14:46;10.37;;;7.40;;
8312;SDS011;4194;43.408;24.626;2023-09-19T03:17:11;10.57;;;7.27;;
8312;SDS011;4194;43.408;24.626;2023-09-19T03:19:39;8.53;;;6.70;;
8312;SDS011;4194;43.408;24.626;2023-09-19T03:22:05;10.53;;;7.03;;
8312;SDS011;4194;43.408;24.626;2023-09-19T03:24:31;13.20;;;7.00;;
8312;SDS011;4194;43.408;24.626;2023-09-19T03:26:58;10.97;;;7.57;;
8312;SDS011;4194;43.408;24.626;2023-09-19T03:29:24;9.97;;;7.17;;
8312;SDS011;4194;43.408;24.626;2023-09-19T03:31:50;8.30;;;7.00;;
8312;SDS011;4194;43.408;24.626;2023-09-19T03:34:16;10.13;;;7.63;;
8312;SDS011;4194;43.408;24.626;2023-09-19T03:36:42;9.63;;;7.70;;
8312;SDS011;4194;43.408;24.626;2023-09-19T03:39:08;10.23;;;7.60;;
8312;SDS011;4194;43.408;24.626;2023-09-19T03:41:33;21.10;;;7.80;;
8312;SDS011;4194;43.408;24.626;2023-09-19T03:44:01;12.13;;;7.33;;
8312;SDS011;4194;43.408;24.626;2023-09-19T03:46:27;12.37;;;7.00;;
8312;SDS011;4194;43.408;24.626;2023-09-19T03:48:53;7.37;;;6.57;;
8312;SDS011;4194;43.408;24.626;2023-09-19T03:51:20;7.97;;;6.60;;
8312;SDS011;4194;43.408;24.626;2023-09-19T03:53:45;8.00;;;6.80;;
8312;SDS011;4194;43.408;24.626;2023-09-19T03:56:11;12.20;;;7.73;;
8312;SDS011;4194;43.408;24.626;2023-09-19T03:58:37;13.50;;;6.70;;
8312;SDS011;4194;43.408;24.626;2023-09-19T04:01:04;10.73;;;7.40;;
8312;SDS011;4194;43.408;24.626;2023-09-19T04:03:32;9.43;;;7.40;;
8312;SDS011;4194;43.408;24.626;2023-09-19T04:06:14;14.00;;;8.27;;
8312;SDS011;4194;43.408;24.626;2023-09-19T04:08:41;9.07;;;6.53;;
8312;SDS011;4194;43.408;24.626;2023-09-19T04:11:07;12.53;;;7.47;;
8312;SDS011;4194;43.408;24.626;2023-09-19T04:13:33;11.47;;;7.03;;
8312;SDS011;4194;43.408;24.626;2023-09-19T04:15:59;9.93;;;6.67;;
8312;SDS011;4194;43.408;24.626;2023-09-19T04:18:25;14.27;;;7.83;;
8312;SDS011;4194;43.408;24.626;2023-09-19T04:20:51;11.37;;;6.97;;
8312;SDS011;4194;43.408;24.626;2023-09-19T04:23:17;9.80;;;7.43;;
8312;SDS011;4194;43.408;24.626;2023-09-19T04:25:45;12.37;;;7.77;;
8312;SDS011;4194;43.408;24.626;2023-09-19T04:28:10;15.33;;;7.43;;
8312;SDS011;4194;43.408;24.626;2023-09-19T04:30:36;10.40;;;7.07;;
8312;SDS011;4194;43.408;24.626;2023-09-19T04:33:05;10.70;;;6.60;;
8312;SDS011;4194;43.408;24.626;2023-09-19T04:35:31;14.20;;;6.40;;
8312;SDS011;4194;43.408;24.626;2023-09-19T04:37:57;7.87;;;6.80;;
8312;SDS011;4194;43.408;24.626;2023-09-19T04:40:23;9.63;;;6.17;;
8312;SDS011;4194;43.408;24.626;2023-09-19T04:42:57;10.93;;;6.50;;
8312;SDS011;4194;43.408;24.626;2023-09-19T04:45:26;11.13;;;7.10;;
8312;SDS011;4194;43.408;24.626;2023-09-19T04:47:53;11.50;;;7.63;;
8312;SDS011;4194;43.408;24.626;2023-09-19T04:50:19;13.37;;;7.77;;
8312;SDS011;4194;43.408;24.626;2023-09-19T04:52:46;10.40;;;7.00;;
8312;SDS011;4194;43.408;24.626;2023-09-19T04:55:16;11.43;;;7.40;;
8312;SDS011;4194;43.408;24.626;2023-09-19T04:58:08;10.53;;;7.40;;
8312;SDS011;4194;43.408;24.626;2023-09-19T05:00:33;9.20;;;7.17;;
8312;SDS011;4194;43.408;24.626;2023-09-19T05:03:00;9.27;;;6.43;;
8312;SDS011;4194;43.408;24.626;2023-09-19T05:05:26;7.20;;;6.43;;
8312;SDS011;4194;43.408;24.626;2023-09-19T05:07:51;16.63;;;7.30;;
8312;SDS011;4194;43.408;24.626;2023-09-19T05:10:19;8.90;;;7.10;;
8312;SDS011;4194;43.408;24.626;2023-09-19T05:12:45;8.10;;;6.13;;
8312;SDS011;4194;43.408;24.626;2023-09-19T05:15:14;11.63;;;6.87;;
8312;SDS011;4194;43.408;24.626;2023-09-19T05:17:42;9.40;;;6.90;;
8312;SDS011;4194;43.408;24.626;2023-09-19T05:20:08;11.47;;;6.40;;
8312;SDS011;4194;43.408;24.626;2023-09-19T05:22:42;10.93;;;6.23;;
8312;SDS011;4194;43.408;24.626;2023-09-19T05:25:08;14.37;;;7.00;;
8312;SDS011;4194;43.408;24.626;2023-09-19T05:27:36;15.50;;;6.93;;
8312;SDS011;4194;43.408;24.626;2023-09-19T05:30:01;14.80;;;6.77;;
8312;SDS011;4194;43.408;24.626;2023-09-19T05:32:28;12.37;;;7.40;;
8312;SDS011;4194;43.408;24.626;2023-09-19T05:34:53;15.60;;;7.77;;
8312;SDS011;4194;43.408;24.626;2023-09-19T05:37:21;14.00;;;8.80;;
8312;SDS011;4194;43.408;24.626;2023-09-19T05:39:48;14.93;;;8.67;;
8312;SDS011;4194;43.408;24.626;2023-09-19T05:42:14;17.70;;;8.87;;
8312;SDS011;4194;43.408;24.626;2023-09-19T05:44:41;12.57;;;8.23;;
8312;SDS011;4194;43.408;24.626;2023-09-19T05:47:07;15.00;;;9.00;;
8312;SDS011;4194;43.408;24.626;2023-09-19T05:49:34;15.97;;;9.70;;
8312;SDS011;4194;43.408;24.626;2023-09-19T05:52:04;19.10;;;8.90;;
8312;SDS011;4194;43.408;24.626;2023-09-19T05:54:30;22.60;;;9.70;;
8312;SDS011;4194;43.408;24.626;2023-09-19T05:56:56;18.20;;;8.50;;
8312;SDS011;4194;43.408;24.626;2023-09-19T05:59:23;18.47;;;9.77;;
8312;SDS011;4194;43.408;24.626;2023-09-19T06:01:49;18.80;;;9.23;;
8312;SDS011;4194;43.408;24.626;2023-09-19T06:04:14;14.13;;;8.03;;
8312;SDS011;4194;43.408;24.626;2023-09-19T06:06:40;16.67;;;8.30;;
8312;SDS011;4194;43.408;24.626;2023-09-19T06:09:06;18.67;;;7.87;;
8312;SDS011;4194;43.408;24.626;2023-09-19T06:11:35;13.13;;;7.40;;
8312;SDS011;4194;43.408;24.626;2023-09-19T06:14:04;12.43;;;7.30;;
8312;SDS011;4194;43.408;24.626;2023-09-19T06:16:30;12.23;;;7.43;;
8312;SDS011;4194;43.408;24.626;2023-09-19T06:18:57;14.47;;;7.70;;
8312;SDS011;4194;43.408;24.626;2023-09-19T06:21:24;18.87;;;8.90;;
8312;SDS011;4194;43.408;24.626;2023-09-19T06:23:52;21.00;;;7.97;;
8312;SDS011;4194;43.408;24.626;2023-09-19T06:26:18;26.53;;;8.47;;
8312;SDS011;4194;43.408;24.626;2023-09-19T06:28:43;28.33;;;10.47;;
8312;SDS011;4194;43.408;24.626;2023-09-19T06:31:09;26.00;;;8.93;;
8312;SDS011;4194;43.408;24.626;2023-09-19T06:33:37;33.33;;;9.90;;
8312;SDS011;4194;43.408;24.626;2023-09-19T06:36:06;20.57;;;9.43;;
8312;SDS011;4194;43.408;24.626;2023-09-19T06:38:32;30.87;;;10.00;;
8312;SDS011;4194;43.408;24.626;2023-09-19T06:41:01;30.17;;;10.73;;
8312;SDS011;4194;43.408;24.626;2023-09-19T06:43:32;22.97;;;9.00;;
8312;SDS011;4194;43.408;24.626;2023-09-19T06:45:59;23.80;;;8.57;;
8312;SDS011;4194;43.408;24.626;2023-09-19T06:48:25;18.07;;;8.00;;
8312;SDS011;4194;43.408;24.626;2023-09-19T06:50:55;19.87;;;7.40;;
8312;SDS011;4194;43.408;24.626;2023-09-19T06:53:23;19.20;;;8.57;;
8312;SDS011;4194;43.408;24.626;2023-09-19T06:55:52;10.60;;;7.53;;
8312;SDS011;4194;43.408;24.626;2023-09-19T06:58:19;15.50;;;8.33;;
8312;SDS011;4194;43.408;24.626;2023-09-19T07:00:45;15.17;;;8.33;;
8312;SDS011;4194;43.408;24.626;2023-09-19T07:03:11;10.77;;;8.50;;
8312;SDS011;4194;43.408;24.626;2023-09-19T07:05:39;11.53;;;6.50;;
8312;SDS011;4194;43.408;24.626;2023-09-19T07:08:05;16.23;;;7.20;;
8312;SDS011;4194;43.408;24.626;2023-09-19T07:10:32;13.07;;;7.53;;
8312;SDS011;4194;43.408;24.626;2023-09-19T07:12:59;12.30;;;8.43;;
8312;SDS011;4194;43.408;24.626;2023-09-19T07:15:35;15.47;;;8.40;;
8312;SDS011;4194;43.408;24.626;2023-09-19T07:18:04;13.17;;;8.80;;
8312;SDS011;4194;43.408;24.626;2023-09-19T07:20:31;12.70;;;7.90;;
8312;SDS011;4194;43.408;24.626;2023-09-19T07:22:59;13.97;;;7.80;;
8312;SDS011;4194;43.408;24.626;2023-09-19T07:25:25;9.97;;;7.87;;
8312;SDS011;4194;43.408;24.626;2023-09-19T07:27:52;12.50;;;7.37;;
8312;SDS011;4194;43.408;24.626;2023-09-19T07:30:20;10.20;;;7.60;;
8312;SDS011;4194;43.408;24.626;2023-09-19T07:32:46;15.37;;;7.67;;
8312;SDS011;4194;43.408;24.626;2023-09-19T07:35:12;25.57;;;7.93;;
8312;SDS011;4194;43.408;24.626;2023-09-19T07:37:37;15.03;;;7.10;;
8312;SDS011;4194;43.408;24.626;2023-09-19T07:40:03;18.20;;;6.53;;
8312;SDS011;4194;43.408;24.626;2023-09-19T07:42:34;11.90;;;5.57;;
8312;SDS011;4194;43.408;24.626;2023-09-19T07:45:02;20.20;;;6.10;;
8312;SDS011;4194;43.408;24.626;2023-09-19T07:47:28;15.00;;;6.20;;
8312;SDS011;4194;43.408;24.626;2023-09-19T07:49:55;11.27;;;5.50;;
8312;SDS011;4194;43.408;24.626;2023-09-19T07:52:21;8.57;;;5.00;;
8312;SDS011;4194;43.408;24.626;2023-09-19T07:54:48;9.07;;;5.27;;
8312;SDS011;4194;43.408;24.626;2023-09-19T07:57:14;40.93;;;7.10;;
8312;SDS011;4194;43.408;24.626;2023-09-19T07:59:41;11.37;;;5.00;;
8312;SDS011;4194;43.408;24.626;2023-09-19T08:02:07;11.57;;;5.23;;
8312;SDS011;4194;43.408;24.626;2023-09-19T08:04:40;11.47;;;5.53;;
8312;SDS011;4194;43.408;24.626;2023-09-19T08:07:07;12.00;;;4.73;;
8312;SDS011;4194;43.408;24.626;2023-09-19T08:09:34;12.67;;;4.97;;
8312;SDS011;4194;43.408;24.626;2023-09-19T08:12:00;11.93;;;5.27;;
8312;SDS011;4194;43.408;24.626;2023-09-19T08:14:30;15.77;;;4.87;;
8312;SDS011;4194;43.408;24.626;2023-09-19T08:16:56;19.20;;;6.30;;
8312;SDS011;4194;43.408;24.626;2023-09-19T08:19:23;10.23;;;5.93;;
8312;SDS011;4194;43.408;24.626;2023-09-19T08:21:53;17.20;;;5.50;;
8312;SDS011;4194;43.408;24.626;2023-09-19T08:24:24;21.97;;;5.50;;
8312;SDS011;4194;43.408;24.626;2023-09-19T08:26:52;10.37;;;5.37;;
8312;SDS011;4194;43.408;24.626;2023-09-19T08:29:19;11.30;;;5.67;;
8312;SDS011;4194;43.408;24.626;2023-09-19T08:31:45;11.97;;;5.07;;
8312;SDS011;4194;43.408;24.626;2023-09-19T08:34:14;9.13;;;4.97;;
8312;SDS011;4194;43.408;24.626;2023-09-19T08:36:40;10.13;;;5.53;;
8312;SDS011;4194;43.408;24.626;2023-09-19T08:39:08;10.60;;;5.40;;
8312;SDS011;4194;43.408;24.626;2023-09-19T08:41:34;16.23;;;5.93;;
8312;SDS011;4194;43.408;24.626;2023-09-19T08:43:59;12.70;;;5.53;;
8312;SDS011;4194;43.408;24.626;2023-09-19T08:46:30;8.43;;;5.20;;
8312;SDS011;4194;43.408;24.626;2023-09-19T08:49:00;11.67;;;4.90;;
8312;SDS011;4194;43.408;24.626;2023-09-19T08:56:35;15.07;;;5.40;;
8312;SDS011;4194;43.408;24.626;2023-09-19T08:59:04;11.60;;;5.13;;
8312;SDS011;4194;43.408;24.626;2023-09-19T09:01:34;7.90;;;4.73;;
8312;SDS011;4194;43.408;24.626;2023-09-19T09:04:01;9.77;;;4.20;;
8312;SDS011;4194;43.408;24.626;2023-09-19T09:06:27;10.63;;;4.40;;
8312;SDS011;4194;43.408;24.626;2023-09-19T09:08:54;8.03;;;3.87;;
8312;SDS011;4194;43.408;24.626;2023-09-19T09:11:20;9.87;;;4.47;;
8312;SDS011;4194;43.408;24.626;2023-09-19T09:13:49;8.40;;;4.30;;
8312;SDS011;4194;43.408;24.626;2023-09-19T09:16:15;10.80;;;4.57;;
8312;SDS011;4194;43.408;24.626;2023-09-19T09:18:44;13.23;;;5.00;;
8312;SDS011;4194;43.408;24.626;2023-09-19T09:21:11;8.07;;;3.87;;
8312;SDS011;4194;43.408;24.626;2023-09-19T09:23:39;5.33;;;4.43;;
8312;SDS011;4194;43.408;24.626;2023-09-19T09:26:05;10.47;;;4.20;;
8312;SDS011;4194;43.408;24.626;2023-09-19T09:28:33;5.77;;;4.17;;
8312;SDS011;4194;43.408;24.626;2023-09-19T09:31:01;7.83;;;4.47;;
8312;SDS011;4194;43.408;24.626;2023-09-19T09:33:28;6.13;;;4.30;;
8312;SDS011;4194;43.408;24.626;2023-09-19T09:35:55;6.90;;;4.77;;
8312;SDS011;4194;43.408;24.626;2023-09-19T09:38:24;8.90;;;4.50;;
8312;SDS011;4194;43.408;24.626;2023-09-19T09:40:57;7.57;;;4.67;;
8312;SDS011;4194;43.408;24.626;2023-09-19T09:43:32;11.30;;;5.00;;
8312;SDS011;4194;43.408;24.626;2023-09-19T09:46:10;9.47;;;5.13;;
8312;SDS011;4194;43.408;24.626;2023-09-19T09:48:47;15.90;;;9.30;;
8312;SDS011;4194;43.408;24.626;2023-09-19T09:52:05;14.23;;;6.40;;
8312;SDS011;4194;43.408;24.626;2023-09-19T09:54:41;8.33;;;4.17;;
8312;SDS011;4194;43.408;24.626;2023-09-19T09:57:30;8.00;;;4.50;;
8312;SDS011;4194;43.408;24.626;2023-09-19T09:59:56;8.47;;;4.33;;
8312;SDS011;4194;43.408;24.626;2023-09-19T10:02:39;8.90;;;5.07;;
8312;SDS011;4194;43.408;24.626;2023-09-19T10:07:38;7.63;;;3.90;;
8312;SDS011;4194;43.408;24.626;2023-09-19T10:10:07;10.60;;;3.87;;
8312;SDS011;4194;43.408;24.626;2023-09-19T10:12:47;5.00;;;3.37;;
8312;SDS011;4194;43.408;24.626;2023-09-19T10:15:17;12.83;;;4.43;;
8312;SDS011;4194;43.408;24.626;2023-09-19T10:17:46;7.93;;;3.83;;
8312;SDS011;4194;43.408;24.626;2023-09-19T10:20:16;13.57;;;3.80;;
8312;SDS011;4194;43.408;24.626;2023-09-19T10:22:52;7.03;;;3.80;;
8312;SDS011;4194;43.408;24.626;2023-09-19T10:25:26;8.37;;;4.00;;
8312;SDS011;4194;43.408;24.626;2023-09-19T10:27:56;8.73;;;3.20;;
8312;SDS011;4194;43.408;24.626;2023-09-19T10:30:26;8.57;;;3.57;;
8312;SDS011;4194;43.408;24.626;2023-09-19T10:32:57;4.97;;;3.50;;
8312;SDS011;4194;43.408;24.626;2023-09-19T10:35:28;12.00;;;3.63;;
8312;SDS011;4194;43.408;24.626;2023-09-19T10:37:54;7.07;;;3.37;;
8312;SDS011;4194;43.408;24.626;2023-09-19T10:40:24;7.77;;;3.23;;
8312;SDS011;4194;43.408;24.626;2023-09-19T10:42:57;6.73;;;3.60;;
8312;SDS011;4194;43.408;24.626;2023-09-19T10:45:33;12.73;;;4.20;;
8312;SDS011;4194;43.408;24.626;2023-09-19T10:48:02;5.93;;;3.57;;
8312;SDS011;4194;43.408;24.626;2023-09-19T10:50:31;5.13;;;3.73;;
8312;SDS011;4194;43.408;24.626;2023-09-19T10:53:02;6.80;;;3.90;;
8312;SDS011;4194;43.408;24.626;2023-09-19T10:55:33;4.90;;;3.50;;
8312;SDS011;4194;43.408;24.626;2023-09-19T10:58:00;5.10;;;3.40;;
8312;SDS011;4194;43.408;24.626;2023-09-19T11:00:29;8.00;;;3.17;;
8312;SDS011;4194;43.408;24.626;2023-09-19T11:05:40;7.07;;;4.10;;
8312;SDS011;4194;43.408;24.626;2023-09-19T11:08:10;9.60;;;3.73;;
8312;SDS011;4194;43.408;24.626;2023-09-19T11:10:44;7.30;;;4.00;;
8312;SDS011;4194;43.408;24.626;2023-09-19T11:13:27;7.23;;;3.17;;
8312;SDS011;4194;43.408;24.626;2023-09-19T11:26:57;7.53;;;3.60;;
8312;SDS011;4194;43.408;24.626;2023-09-19T11:29:42;6.47;;;3.00;;
8312;SDS011;4194;43.408;24.626;2023-09-19T11:32:07;6.37;;;3.43;;
8312;SDS011;4194;43.408;24.626;2023-09-19T11:34:38;4.87;;;3.80;;
8312;SDS011;4194;43.408;24.626;2023-09-19T11:39:40;5.57;;;3.80;;
8312;SDS011;4194;43.408;24.626;2023-09-19T11:42:41;4.20;;;3.40;;
8312;SDS011;4194;43.408;24.626;2023-09-19T11:48:23;8.13;;;3.77;;
8312;SDS011;4194;43.408;24.626;2023-09-19T11:50:52;6.53;;;3.73;;
8312;SDS011;4194;43.408;24.626;2023-09-19T11:53:18;19.20;;;4.70;;
8312;SDS011;4194;43.408;24.626;2023-09-19T11:55:45;10.33;;;3.90;;
8312;SDS011;4194;43.408;24.626;2023-09-19T11:58:11;9.70;;;3.97;;
8312;SDS011;4194;43.408;24.626;2023-09-19T12:00:41;4.17;;;3.50;;
8312;SDS011;4194;43.408;24.626;2023-09-19T12:03:11;5.67;;;3.10;;
8312;SDS011;4194;43.408;24.626;2023-09-19T12:05:39;7.63;;;3.30;;
8312;SDS011;4194;43.408;24.626;2023-09-19T12:08:04;4.20;;;3.33;;
8312;SDS011;4194;43.408;24.626;2023-09-19T12:10:44;5.07;;;3.33;;
8312;SDS011;4194;43.408;24.626;2023-09-19T12:13:15;4.57;;;3.10;;
8312;SDS011;4194;43.408;24.626;2023-09-19T12:15:41;4.17;;;3.20;;
8312;SDS011;4194;43.408;24.626;2023-09-19T12:18:10;3.67;;;3.37;;
8312;SDS011;4194;43.408;24.626;2023-09-19T12:20:51;4.57;;;2.83;;
8312;SDS011;4194;43.408;24.626;2023-09-19T12:23:17;7.63;;;3.60;;
8312;SDS011;4194;43.408;24.626;2023-09-19T12:25:43;4.40;;;3.50;;
8312;SDS011;4194;43.408;24.626;2023-09-19T12:28:12;6.17;;;3.23;;
8312;SDS011;4194;43.408;24.626;2023-09-19T12:30:46;6.95;;;3.42;;
8312;SDS011;4194;43.408;24.626;2023-09-19T12:33:19;4.40;;;3.25;;
8312;SDS011;4194;43.408;24.626;2023-09-19T12:35:46;8.10;;;3.20;;
8312;SDS011;4194;43.408;24.626;2023-09-19T12:38:22;4.28;;;3.50;;
8312;SDS011;4194;43.408;24.626;2023-09-19T12:40:54;4.85;;;2.88;;
8312;SDS011;4194;43.408;24.626;2023-09-19T12:43:21;7.17;;;3.27;;
8312;SDS011;4194;43.408;24.626;2023-09-19T12:45:48;4.10;;;3.70;;
8312;SDS011;4194;43.408;24.626;2023-09-19T12:48:24;6.40;;;3.27;;
8312;SDS011;4194;43.408;24.626;2023-09-19T12:51:01;5.10;;;3.53;;
8312;SDS011;4194;43.408;24.626;2023-09-19T12:56:11;5.77;;;3.43;;
8312;SDS011;4194;43.408;24.626;2023-09-19T12:58:56;6.73;;;3.53;;
8312;SDS011;4194;43.408;24.626;2023-09-19T13:01:28;6.83;;;3.60;;
8312;SDS011;4194;43.408;24.626;2023-09-19T13:06:43;6.67;;;3.40;;
8312;SDS011;4194;43.408;24.626;2023-09-19T13:09:10;7.03;;;3.70;;
8312;SDS011;4194;43.408;24.626;2023-09-19T13:11:37;5.77;;;3.30;;
8312;SDS011;4194;43.408;24.626;2023-09-19T13:19:38;5.77;;;3.47;;
8312;SDS011;4194;43.408;24.626;2023-09-19T13:22:05;5.53;;;3.10;;
8312;SDS011;4194;43.408;24.626;2023-09-19T13:24:51;5.27;;;3.87;;
8312;SDS011;4194;43.408;24.626;2023-09-19T13:27:17;5.90;;;3.30;;
8312;SDS011;4194;43.408;24.626;2023-09-19T13:29:43;3.53;;;2.97;;
8312;SDS011;4194;43.408;24.626;2023-09-19T13:32:08;5.73;;;3.13;;
8312;SDS011;4194;43.408;24.626;2023-09-19T13:34:36;5.60;;;3.43;;
8312;SDS011;4194;43.408;24.626;2023-09-19T13:37:02;3.93;;;2.87;;
8312;SDS011;4194;43.408;24.626;2023-09-19T13:39:29;4.43;;;3.40;;
8312;SDS011;4194;43.408;24.626;2023-09-19T13:41:55;4.63;;;3.00;;
8312;SDS011;4194;43.408;24.626;2023-09-19T13:44:21;6.20;;;3.60;;
8312;SDS011;4194;43.408;24.626;2023-09-19T13:46:46;3.70;;;3.30;;
8312;SDS011;4194;43.408;24.626;2023-09-19T13:49:12;6.03;;;3.40;;
8312;SDS011;4194;43.408;24.626;2023-09-19T13:51:38;8.47;;;3.60;;
8312;SDS011;4194;43.408;24.626;2023-09-19T13:54:04;4.13;;;3.10;;
8312;SDS011;4194;43.408;24.626;2023-09-19T13:56:30;5.50;;;3.20;;
8312;SDS011;4194;43.408;24.626;2023-09-19T13:58:57;7.37;;;3.63;;
8312;SDS011;4194;43.408;24.626;2023-09-19T14:01:22;5.97;;;3.37;;
8312;SDS011;4194;43.408;24.626;2023-09-19T14:03:48;5.23;;;3.17;;
8312;SDS011;4194;43.408;24.626;2023-09-19T14:06:16;6.87;;;3.43;;
8312;SDS011;4194;43.408;24.626;2023-09-19T14:08:43;4.77;;;2.83;;
8312;SDS011;4194;43.408;24.626;2023-09-19T14:11:13;3.93;;;2.97;;
8312;SDS011;4194;43.408;24.626;2023-09-19T14:13:41;9.80;;;3.30;;
8312;SDS011;4194;43.408;24.626;2023-09-19T14:16:14;7.13;;;3.10;;
8312;SDS011;4194;43.408;24.626;2023-09-19T14:18:40;6.17;;;2.97;;
8312;SDS011;4194;43.408;24.626;2023-09-19T14:21:07;6.20;;;3.17;;
8312;SDS011;4194;43.408;24.626;2023-09-19T14:23:36;4.27;;;2.80;;
8312;SDS011;4194;43.408;24.626;2023-09-19T14:26:03;6.47;;;2.97;;
8312;SDS011;4194;43.408;24.626;2023-09-19T14:28:30;5.30;;;3.07;;
8312;SDS011;4194;43.408;24.626;2023-09-19T14:30:58;7.50;;;3.00;;
8312;SDS011;4194;43.408;24.626;2023-09-19T14:33:30;8.27;;;3.90;;
8312;SDS011;4194;43.408;24.626;2023-09-19T14:35:56;3.47;;;2.67;;
8312;SDS011;4194;43.408;24.626;2023-09-19T14:38:22;8.03;;;2.90;;
8312;SDS011;4194;43.408;24.626;2023-09-19T14:40:47;10.33;;;2.90;;
8312;SDS011;4194;43.408;24.626;2023-09-19T14:43:15;4.30;;;2.97;;
8312;SDS011;4194;43.408;24.626;2023-09-19T14:45:40;8.53;;;2.93;;
8312;SDS011;4194;43.408;24.626;2023-09-19T14:48:09;7.73;;;3.00;;
8312;SDS011;4194;43.408;24.626;2023-09-19T14:50:35;6.97;;;2.90;;
8312;SDS011;4194;43.408;24.626;2023-09-19T14:53:01;17.70;;;11.33;;
8312;SDS011;4194;43.408;24.626;2023-09-19T14:55:27;17.77;;;10.10;;
8312;SDS011;4194;43.408;24.626;2023-09-19T14:57:54;7.97;;;5.53;;
8312;SDS011;4194;43.408;24.626;2023-09-19T15:00:22;6.37;;;3.73;;
8312;SDS011;4194;43.408;24.626;2023-09-19T15:02:48;8.10;;;3.70;;
8312;SDS011;4194;43.408;24.626;2023-09-19T15:05:16;10.77;;;4.50;;
8312;SDS011;4194;43.408;24.626;2023-09-19T15:07:42;7.93;;;3.00;;
8312;SDS011;4194;43.408;24.626;2023-09-19T15:10:08;6.53;;;2.87;;
8312;SDS011;4194;43.408;24.626;2023-09-19T15:12:34;5.93;;;3.17;;
8312;SDS011;4194;43.408;24.626;2023-09-19T15:15:02;11.00;;;2.50;;
8312;SDS011;4194;43.408;24.626;2023-09-19T15:17:31;5.80;;;2.50;;
8312;SDS011;4194;43.408;24.626;2023-09-19T15:19:57;4.83;;;2.97;;
8312;SDS011;4194;43.408;24.626;2023-09-19T15:22:23;9.47;;;4.00;;
8312;SDS011;4194;43.408;24.626;2023-09-19T15:24:49;7.47;;;3.03;;
8312;SDS011;4194;43.408;24.626;2023-09-19T15:27:16;6.90;;;3.10;;
8312;SDS011;4194;43.408;24.626;2023-09-19T15:29:45;4.93;;;3.07;;
8312;SDS011;4194;43.408;24.626;2023-09-19T15:32:11;7.70;;;3.30;;
8312;SDS011;4194;43.408;24.626;2023-09-19T15:34:36;7.30;;;2.83;;
8312;SDS011;4194;43.408;24.626;2023-09-19T15:37:02;6.67;;;3.40;;
8312;SDS011;4194;43.408;24.626;2023-09-19T15:39:31;3.67;;;2.90;;
8312;SDS011;4194;43.408;24.626;2023-09-19T15:42:02;9.50;;;3.97;;
8312;SDS011;4194;43.408;24.626;2023-09-19T15:44:28;6.87;;;3.80;;
8312;SDS011;4194;43.408;24.626;2023-09-19T15:46:53;7.93;;;3.93;;
8312;SDS011;4194;43.408;24.626;2023-09-19T15:49:19;5.40;;;3.83;;
8312;SDS011;4194;43.408;24.626;2023-09-19T15:51:45;7.00;;;4.63;;
8312;SDS011;4194;43.408;24.626;2023-09-19T15:54:12;6.27;;;5.07;;
8312;SDS011;4194;43.408;24.626;2023-09-19T15:56:39;7.70;;;5.23;;
8312;SDS011;4194;43.408;24.626;2023-09-19T15:59:09;9.57;;;6.33;;
8312;SDS011;4194;43.408;24.626;2023-09-19T16:01:37;11.67;;;8.67;;